createdAt,value
2023-04-08T00:01:43.021Z,100660.69
2023-04-08T00:04:44.712Z,100661.34
2023-04-08T00:07:46.360Z,100663.03
2023-04-08T00:10:48.063Z,100661.94
2023-04-08T00:13:49.679Z,100659.88
2023-04-08T00:16:51.449Z,100668.91
2023-04-08T00:19:53.174Z,100665.44
2023-04-08T00:22:54.917Z,100661.19
2023-04-08T00:25:56.486Z,100659.31
2023-04-08T00:28:58.148Z,100668.72
2023-04-08T00:31:59.792Z,100670.72
2023-04-08T00:35:02.638Z,100678.44
2023-04-08T00:38:07.944Z,100679.75
2023-04-08T00:41:09.709Z,100678.72
2023-04-08T00:44:11.456Z,100671.16
2023-04-08T00:47:14.265Z,100683.25
2023-04-08T00:50:16.266Z,100682.16
2023-04-08T00:53:19.371Z,100684.44
2023-04-08T00:56:22.514Z,100680.87
2023-04-08T00:59:24.163Z,100683.78
2023-04-08T01:02:43.256Z,100684.56
2023-04-08T01:05:53.988Z,100687.97
2023-04-08T01:08:58.132Z,100675.94
2023-04-08T01:12:05.616Z,100679.78
2023-04-08T01:15:11.046Z,100679.53
2023-04-08T01:18:14.360Z,100681.06
2023-04-08T01:21:18.329Z,100679.25
2023-04-08T01:24:33.629Z,100681.34
2023-04-08T01:27:36.088Z,100683.22
2023-04-08T01:30:42.674Z,100688.19
2023-04-08T01:33:46.108Z,100682.59
2023-04-08T01:36:48.932Z,100682.19
2023-04-08T01:39:52.636Z,100683.09
2023-04-08T01:42:56.468Z,100684.78
2023-04-08T01:45:59.066Z,100682.03
2023-04-08T01:49:01.202Z,100685.34
2023-04-08T01:52:05.143Z,100682.38
2023-04-08T01:55:07.115Z,100674.03
2023-04-08T01:58:14.160Z,100676.03
2023-04-08T02:01:19.745Z,100677.91
2023-04-08T02:04:21.517Z,100669.78
2023-04-08T02:07:23.597Z,100680.16
2023-04-08T02:10:25.342Z,100682.34
2023-04-08T02:13:27.861Z,100686.28
2023-04-08T02:16:56.477Z,100679.66
2023-04-08T02:20:26.826Z,100683.34
2023-04-08T02:23:30.014Z,100672.62
2023-04-08T02:26:36.226Z,100671.69
2023-04-08T02:29:41.310Z,100671.94
2023-04-08T02:32:44.530Z,100673.00
2023-04-08T02:35:47.933Z,100666.66
2023-04-08T02:38:50.524Z,100668.63
2023-04-08T02:41:52.334Z,100669.97
2023-04-08T02:44:54.100Z,100661.94
2023-04-08T02:47:55.983Z,100664.97
2023-04-08T02:50:57.759Z,100666.38
2023-04-08T02:53:59.402Z,100669.12
2023-04-08T02:57:01.845Z,100667.69
2023-04-08T03:00:05.427Z,100680.31
2023-04-08T03:03:07.459Z,100671.97
2023-04-08T03:06:09.081Z,100667.31
2023-04-08T03:09:10.843Z,100671.31
2023-04-08T03:12:12.441Z,100674.97
2023-04-08T03:15:14.150Z,100668.72
2023-04-08T03:18:15.991Z,100671.81
2023-04-08T03:21:17.811Z,100677.97
2023-04-08T03:24:19.427Z,100684.41
2023-04-08T03:27:21.158Z,100681.25
2023-04-08T03:30:22.905Z,100682.44
2023-04-08T03:33:24.771Z,100685.63
2023-04-08T03:36:26.877Z,100686.97
2023-04-08T03:39:28.544Z,100681.81
2023-04-08T03:42:30.434Z,100686.47
2023-04-08T03:45:32.215Z,100688.63
2023-04-08T03:48:33.817Z,100687.41
2023-04-08T03:51:35.446Z,100693.19
2023-04-08T03:54:37.063Z,100697.31
2023-04-08T03:57:38.697Z,100702.19
2023-04-08T04:00:40.378Z,100707.50
2023-04-08T04:03:42.193Z,100708.09
2023-04-08T04:06:43.987Z,100708.72
2023-04-08T04:09:46.148Z,100714.78
2023-04-08T04:12:47.825Z,100713.09
2023-04-08T04:15:49.508Z,100720.88
2023-04-08T04:18:53.425Z,100719.47
2023-04-08T04:21:55.436Z,100723.88
2023-04-08T04:24:57.208Z,100722.28
2023-04-08T04:27:58.881Z,100731.13
2023-04-08T04:31:00.568Z,100725.13
2023-04-08T04:34:02.214Z,100723.72
2023-04-08T04:37:03.807Z,100724.56
2023-04-08T04:40:06.543Z,100729.38
2023-04-08T04:43:08.184Z,100728.22
2023-04-08T04:46:09.885Z,100724.87
2023-04-08T04:49:11.607Z,100727.72
2023-04-08T04:52:13.234Z,100729.84
2023-04-08T04:55:16.073Z,100725.03
2023-04-08T04:58:18.815Z,100737.69
2023-04-08T05:01:20.599Z,100740.25
2023-04-08T05:04:22.437Z,100737.12
2023-04-08T05:07:24.309Z,100737.88
2023-04-08T05:10:26.103Z,100739.88
2023-04-08T05:13:32.722Z,100742.84
2023-04-08T05:16:35.135Z,100743.94
2023-04-08T05:19:36.808Z,100749.41
2023-04-08T05:22:38.598Z,100750.47
2023-04-08T05:25:40.288Z,100750.62
2023-04-08T05:28:41.903Z,100751.78
2023-04-08T05:31:43.606Z,100760.00
2023-04-08T05:34:45.629Z,100753.03
2023-04-08T05:37:47.247Z,100763.47
2023-04-08T05:40:48.895Z,100766.13
2023-04-08T05:43:50.596Z,100771.72
2023-04-08T05:46:52.440Z,100777.84
2023-04-08T05:49:54.113Z,100775.06
2023-04-08T05:52:55.740Z,100784.31
2023-04-08T05:55:57.378Z,100778.03
2023-04-08T05:58:59.109Z,100780.63
2023-04-08T06:02:00.988Z,100781.78
2023-04-08T06:05:06.651Z,100787.69
2023-04-08T06:08:08.430Z,100792.25
2023-04-08T06:11:10.264Z,100797.62
2023-04-08T06:14:11.871Z,100799.28
2023-04-08T06:17:13.490Z,100798.78
2023-04-08T06:20:15.521Z,100798.78
2023-04-08T06:23:17.159Z,100805.63
2023-04-08T06:26:18.750Z,100801.25
2023-04-08T06:29:23.758Z,100803.94
2023-04-08T06:32:25.508Z,100807.63
2023-04-08T06:35:28.280Z,100810.03
2023-04-08T06:38:30.377Z,100808.28
2023-04-08T06:41:32.004Z,100811.41
2023-04-08T06:44:33.731Z,100809.03
2023-04-08T06:47:35.347Z,100807.69
2023-04-08T06:50:36.980Z,100809.41
2023-04-08T06:53:38.831Z,100816.47
2023-04-08T06:56:40.547Z,100820.63
2023-04-08T06:59:42.178Z,100819.97
2023-04-08T07:02:43.868Z,100819.59
2023-04-08T07:05:45.539Z,100814.81
2023-04-08T07:08:47.175Z,100809.72
2023-04-08T07:11:48.810Z,100814.78
2023-04-08T07:14:50.689Z,100816.81
2023-04-08T07:17:52.744Z,100824.59
2023-04-08T07:20:54.558Z,100822.88
2023-04-08T07:23:56.385Z,100826.28
2023-04-08T07:26:58.364Z,100831.84
2023-04-08T07:30:00.323Z,100834.75
2023-04-08T07:33:02.063Z,100833.41
2023-04-08T07:36:03.976Z,100842.69
2023-04-08T07:39:05.770Z,100833.69
2023-04-08T07:42:07.488Z,100838.94
2023-04-08T07:45:09.650Z,100845.62
2023-04-08T07:48:11.357Z,100842.62
2023-04-08T07:51:13.290Z,100843.78
2023-04-08T07:54:17.553Z,100846.59
2023-04-08T07:57:19.216Z,100853.66
2023-04-08T08:00:21.910Z,100852.53
2023-04-08T08:03:23.770Z,100856.44
2023-04-08T08:06:25.928Z,100856.88
2023-04-08T08:09:27.691Z,100858.03
2023-04-08T08:12:29.384Z,100863.41
2023-04-08T08:15:31.090Z,100865.06
2023-04-08T08:18:33.130Z,100861.50
2023-04-08T08:21:37.621Z,100867.47
2023-04-08T08:24:39.427Z,100875.34
2023-04-08T08:27:42.387Z,100872.38
2023-04-08T08:30:44.058Z,100868.41
2023-04-08T08:33:46.784Z,100868.84
2023-04-08T08:36:48.518Z,100866.41
2023-04-08T08:39:50.367Z,100864.63
2023-04-08T08:42:53.297Z,100860.78
2023-04-08T08:45:56.046Z,100874.50
2023-04-08T08:48:59.041Z,100880.41
2023-04-08T08:52:04.414Z,100873.06
2023-04-08T08:55:21.557Z,100877.72
2023-04-08T08:58:39.295Z,100883.88
2023-04-08T09:01:42.639Z,100886.03
2023-04-08T09:04:58.217Z,100886.94
2023-04-08T09:08:00.715Z,100891.44
2023-04-08T09:11:14.922Z,100897.09
2023-04-08T09:14:26.217Z,100889.53
2023-04-08T09:17:41.564Z,100898.47
2023-04-08T09:20:53.597Z,100899.72
2023-04-08T09:23:55.254Z,100899.06
2023-04-08T09:26:57.221Z,100899.34
2023-04-08T09:30:14.279Z,100915.91
2023-04-08T09:33:16.729Z,100919.94
2023-04-08T09:36:18.913Z,100916.09
2023-04-08T09:39:21.109Z,100920.19
2023-04-08T09:42:23.184Z,100917.12
2023-04-08T09:45:28.099Z,100911.97
2023-04-08T09:48:36.484Z,100913.44
2023-04-08T09:51:57.690Z,100917.06
2023-04-08T09:55:08.175Z,100915.72
2023-04-08T09:58:17.732Z,100915.66
2023-04-08T10:01:33.320Z,100922.59
2023-04-08T10:04:41.789Z,100919.53
2023-04-08T10:07:43.547Z,100913.34
2023-04-08T10:10:47.855Z,100924.38
2023-04-08T10:13:50.305Z,100915.31
2023-04-08T10:16:52.089Z,100924.69
2023-04-08T10:19:58.702Z,100920.69
2023-04-08T10:23:01.597Z,100914.72
2023-04-08T10:26:33.718Z,100922.69
2023-04-08T10:29:36.813Z,100917.25
2023-04-08T10:32:41.935Z,100915.94
2023-04-08T10:36:11.722Z,100918.81
2023-04-08T10:39:14.957Z,100920.50
2023-04-08T10:42:16.889Z,100926.94
2023-04-08T10:45:19.616Z,100923.38
2023-04-08T10:48:24.522Z,100925.00
2023-04-08T10:51:26.221Z,100919.91
2023-04-08T10:54:27.882Z,100922.50
2023-04-08T10:57:29.812Z,100925.19
2023-04-08T11:00:39.736Z,100919.53
2023-04-08T11:03:42.866Z,100922.06
2023-04-08T11:06:46.363Z,100922.09
2023-04-08T11:09:49.561Z,100925.41
2023-04-08T11:12:51.550Z,100924.19
2023-04-08T11:15:53.525Z,100923.78
2023-04-08T11:18:55.689Z,100922.38
2023-04-08T11:21:58.873Z,100923.97
2023-04-08T11:25:01.295Z,100917.94
2023-04-08T11:28:03.006Z,100918.72
2023-04-08T11:31:05.930Z,100916.00
2023-04-08T11:34:08.559Z,100925.22
2023-04-08T11:37:10.161Z,100921.37
2023-04-08T11:40:13.185Z,100924.19
2023-04-08T11:43:15.655Z,100922.03
2023-04-08T11:46:17.591Z,100926.03
2023-04-08T11:49:19.267Z,100922.69
2023-04-08T11:52:22.770Z,100920.09
2023-04-08T11:55:24.351Z,100920.53
2023-04-08T11:58:26.080Z,100931.28
2023-04-08T12:01:27.805Z,100922.84
2023-04-08T12:04:30.260Z,100922.22
2023-04-08T12:07:32.515Z,100920.09
2023-04-08T12:10:34.257Z,100922.13
2023-04-08T12:13:36.071Z,100922.78
2023-04-08T12:16:37.858Z,100926.25
2023-04-08T12:19:39.746Z,100922.69
2023-04-08T12:22:41.366Z,100920.31
2023-04-08T12:25:43.205Z,100931.38
2023-04-08T12:28:44.819Z,100920.09
2023-04-08T12:31:46.715Z,100914.47
2023-04-08T12:34:48.384Z,100922.84
2023-04-08T12:37:50.097Z,100916.66
2023-04-08T12:40:51.724Z,100920.09
2023-04-08T12:43:53.454Z,100917.53
2023-04-08T12:46:55.734Z,100913.81
2023-04-08T12:49:57.635Z,100921.28
2023-04-08T12:52:59.266Z,100923.31
2023-04-08T12:56:01.024Z,100915.03
2023-04-08T12:59:02.806Z,100913.94
2023-04-08T13:02:04.580Z,100914.53
2023-04-08T13:05:06.343Z,100917.19
2023-04-08T13:08:07.940Z,100914.66
2023-04-08T13:11:09.578Z,100913.75
2023-04-08T13:14:12.597Z,100922.56
2023-04-08T13:17:14.233Z,100918.44
2023-04-08T13:20:15.956Z,100915.06
2023-04-08T13:23:18.126Z,100916.53
2023-04-08T13:26:19.751Z,100904.31
2023-04-08T13:29:21.488Z,100904.97
2023-04-08T13:32:23.181Z,100903.94
2023-04-08T13:35:25.017Z,100914.16
2023-04-08T13:38:26.638Z,100912.53
2023-04-08T13:41:28.537Z,100900.16
2023-04-08T13:44:30.170Z,100909.31
2023-04-08T13:47:32.247Z,100905.94
2023-04-08T13:50:33.891Z,100905.41
2023-04-08T13:53:35.886Z,100907.63
2023-04-08T13:56:37.520Z,100904.56
2023-04-08T13:59:39.151Z,100904.81
2023-04-08T14:02:41.584Z,100910.38
2023-04-08T14:05:43.333Z,100901.84
2023-04-08T14:08:44.935Z,100912.72
2023-04-08T14:11:46.849Z,100904.34
2023-04-08T14:14:48.441Z,100908.28
2023-04-08T14:17:50.394Z,100908.97
2023-04-08T14:20:52.070Z,100907.53
2023-04-08T14:23:53.716Z,100910.59
2023-04-08T14:26:55.699Z,100910.31
2023-04-08T14:29:57.291Z,100909.88
2023-04-08T14:33:01.030Z,100914.28
2023-04-08T14:36:02.747Z,100911.66
2023-04-08T14:39:04.380Z,100904.84
2023-04-08T14:42:06.088Z,100902.66
2023-04-08T14:45:08.442Z,100913.97
2023-04-08T14:48:10.050Z,100904.50
2023-04-08T14:51:11.732Z,100911.75
2023-04-08T14:54:14.312Z,100915.69
2023-04-08T14:57:16.811Z,100911.63
2023-04-08T15:00:18.428Z,100910.16
2023-04-08T15:03:20.473Z,100912.28
2023-04-08T15:06:22.169Z,100901.22
2023-04-08T15:09:23.799Z,100905.13
2023-04-08T15:12:25.595Z,100906.19
2023-04-08T15:15:27.225Z,100901.78
2023-04-08T15:18:28.926Z,100901.53
2023-04-08T15:21:31.189Z,100897.91
2023-04-08T15:24:32.833Z,100898.63
2023-04-08T15:27:34.914Z,100902.75
2023-04-08T15:30:36.572Z,100902.31
2023-04-08T15:33:42.998Z,100909.50
2023-04-08T15:36:45.406Z,100902.59
2023-04-08T15:39:47.076Z,100903.62
2023-04-08T15:42:48.715Z,100905.16
2023-04-08T15:45:50.469Z,100901.37
2023-04-08T15:48:52.336Z,100907.97
2023-04-08T15:51:54.316Z,100909.22
2023-04-08T15:54:55.956Z,100908.34
2023-04-08T15:57:58.241Z,100905.38
2023-04-08T16:00:59.884Z,100916.75
2023-04-08T16:04:01.968Z,100917.56
2023-04-08T16:07:04.185Z,100917.00
2023-04-08T16:10:06.557Z,100923.16
2023-04-08T16:13:08.673Z,100923.88
2023-04-08T16:16:12.288Z,100928.41
2023-04-08T16:19:14.302Z,100924.87
2023-04-08T16:22:15.935Z,100920.41
2023-04-08T16:25:18.078Z,100925.94
2023-04-08T16:28:19.727Z,100930.22
2023-04-08T16:31:21.792Z,100931.41
2023-04-08T16:34:23.509Z,100930.06
2023-04-08T16:37:25.428Z,100931.25
2023-04-08T16:40:27.457Z,100930.66
2023-04-08T16:43:29.628Z,100936.94
2023-04-08T16:46:31.311Z,100934.03
2023-04-08T16:49:32.908Z,100933.72
2023-04-08T16:52:35.096Z,100941.59
2023-04-08T16:55:36.923Z,100938.13
2023-04-08T16:58:38.544Z,100939.13
2023-04-08T17:01:40.404Z,100944.34
2023-04-08T17:04:42.217Z,100944.38
2023-04-08T17:07:43.894Z,100947.97
2023-04-08T17:10:45.539Z,100944.06
2023-04-08T17:13:47.315Z,100948.34
2023-04-08T17:16:49.238Z,100955.63
2023-04-08T17:19:51.160Z,100958.50
2023-04-08T17:22:53.296Z,100954.91
2023-04-08T17:25:55.101Z,100961.22
2023-04-08T17:28:57.431Z,100956.22
2023-04-08T17:31:59.129Z,100962.91
2023-04-08T17:35:01.207Z,100970.41
2023-04-08T17:38:03.315Z,100963.69
2023-04-08T17:41:05.119Z,100966.88
2023-04-08T17:44:06.800Z,100967.16
2023-04-08T17:47:08.740Z,100981.97
2023-04-08T17:50:11.798Z,100982.41
2023-04-08T17:53:13.726Z,100984.09
2023-04-08T17:56:15.596Z,100985.09
2023-04-08T17:59:17.295Z,100992.75
2023-04-08T18:02:19.066Z,100995.84
2023-04-08T18:05:21.684Z,100986.41
2023-04-08T18:08:23.387Z,100990.06
2023-04-08T18:11:27.143Z,101000.31
2023-04-08T18:14:30.008Z,101003.00
2023-04-08T18:17:31.704Z,101000.50
2023-04-08T18:20:36.883Z,101007.28
2023-04-08T18:23:38.584Z,101005.41
2023-04-08T18:26:40.229Z,101011.22
2023-04-08T18:29:42.099Z,101016.25
2023-04-08T18:32:43.740Z,101016.94
2023-04-08T18:35:45.738Z,101022.31
2023-04-08T18:38:49.431Z,101027.19
2023-04-08T18:41:51.110Z,101025.59
2023-04-08T18:44:52.751Z,101023.59
2023-04-08T18:47:54.422Z,101030.19
2023-04-08T18:50:56.711Z,101032.09
2023-04-08T18:53:58.389Z,101028.97
2023-04-08T18:57:00.108Z,101033.25
2023-04-08T19:00:01.799Z,101031.19
2023-04-08T19:03:03.548Z,101031.06
2023-04-08T19:06:09.954Z,101031.19
2023-04-08T19:09:11.593Z,101031.78
2023-04-08T19:12:13.334Z,101032.59
2023-04-08T19:15:15.056Z,101034.88
2023-04-08T19:18:16.908Z,101032.88
2023-04-08T19:21:18.565Z,101038.94
2023-04-08T19:24:21.021Z,101032.19
2023-04-08T19:27:22.680Z,101036.47
2023-04-08T19:30:24.422Z,101039.03
2023-04-08T19:33:27.877Z,101040.44
2023-04-08T19:36:29.525Z,101039.44
2023-04-08T19:39:31.166Z,101039.03
2023-04-08T19:42:33.107Z,101047.50
2023-04-08T19:45:34.730Z,101045.00
2023-04-08T19:48:36.443Z,101041.31
2023-04-08T19:51:38.080Z,101046.84
2023-04-08T19:54:41.398Z,101047.41
2023-04-08T19:57:43.496Z,101047.75
2023-04-08T20:00:45.450Z,101053.75
2023-04-08T20:03:50.428Z,101051.56
2023-04-08T20:06:52.324Z,101046.69
2023-04-08T20:09:54.167Z,101057.25
2023-04-08T20:12:55.912Z,101058.50
2023-04-08T20:15:58.182Z,101060.31
2023-04-08T20:19:03.415Z,101055.78
2023-04-08T20:22:05.124Z,101054.59
2023-04-08T20:25:07.149Z,101053.81
2023-04-08T20:28:09.087Z,101047.88
2023-04-08T20:31:10.987Z,101051.19
2023-04-08T20:34:12.966Z,101055.47
2023-04-08T20:37:14.656Z,101055.16
2023-04-08T20:40:18.248Z,101056.56
2023-04-08T20:43:20.669Z,101058.78
2023-04-08T20:46:24.626Z,101060.44
2023-04-08T20:49:26.765Z,101056.66
2023-04-08T20:52:33.766Z,101059.50
2023-04-08T20:55:41.206Z,101062.97
2023-04-08T20:59:08.704Z,101070.69
2023-04-08T21:02:14.258Z,101068.44
2023-04-08T21:05:18.667Z,101074.94
2023-04-08T21:08:20.277Z,101063.03
2023-04-08T21:11:22.173Z,101067.34
2023-04-08T21:14:23.922Z,101078.94
2023-04-08T21:17:25.763Z,101069.72
2023-04-08T21:20:27.583Z,101070.16
2023-04-08T21:23:32.494Z,101066.34
2023-04-08T21:26:34.160Z,101067.56
2023-04-08T21:29:43.142Z,101069.59
2023-04-08T21:32:45.312Z,101069.38
2023-04-08T21:35:47.382Z,101075.59
2023-04-08T21:38:49.133Z,101081.56
2023-04-08T21:41:50.940Z,101078.28
2023-04-08T21:44:52.560Z,101076.56
2023-04-08T21:47:55.186Z,101074.59
2023-04-08T21:50:56.927Z,101070.97
2023-04-08T21:53:58.610Z,101069.78
2023-04-08T21:57:01.448Z,101062.47
2023-04-08T22:00:08.103Z,101061.47
2023-04-08T22:03:09.879Z,101068.50
2023-04-08T22:06:16.711Z,101070.84
2023-04-08T22:09:23.908Z,101074.81
2023-04-08T22:12:25.503Z,101073.94
2023-04-08T22:15:27.186Z,101080.06
2023-04-08T22:18:29.021Z,101075.09
2023-04-08T22:21:31.573Z,101074.31
2023-04-08T22:24:33.177Z,101077.19
2023-04-08T22:27:35.072Z,101074.44
2023-04-08T22:30:39.765Z,101075.28
2023-04-08T22:33:41.677Z,101079.75
2023-04-08T22:36:43.400Z,101085.16
2023-04-08T22:39:45.396Z,101086.94
2023-04-08T22:42:47.057Z,101083.69
2023-04-08T22:45:48.701Z,101082.34
2023-04-08T22:48:50.780Z,101081.13
2023-04-08T22:51:53.106Z,101086.84
2023-04-08T22:54:54.805Z,101084.16
2023-04-08T22:57:56.610Z,101081.81
2023-04-08T23:00:58.532Z,101093.00
2023-04-08T23:04:00.448Z,101095.34
2023-04-08T23:07:02.254Z,101087.19
2023-04-08T23:10:04.281Z,101091.44
2023-04-08T23:13:06.245Z,101086.19
2023-04-08T23:16:09.361Z,101089.09
2023-04-08T23:19:11.633Z,101078.56
2023-04-08T23:22:13.449Z,101083.69
2023-04-08T23:25:15.115Z,101083.16
2023-04-08T23:28:16.848Z,101090.91
2023-04-08T23:31:18.676Z,101087.63
2023-04-08T23:34:20.422Z,101084.78
2023-04-08T23:37:22.130Z,101082.97
2023-04-08T23:40:23.874Z,101081.37
2023-04-08T23:43:25.647Z,101082.50
2023-04-08T23:46:27.463Z,101089.28
2023-04-08T23:49:29.132Z,101076.75
2023-04-08T23:52:30.914Z,101069.75
2023-04-08T23:55:32.528Z,101072.62
2023-04-08T23:58:35.033Z,101076.69
